Time;durP1;ratioP1;P1;durP2;ratioP2;P2;SDS_P1;SDS_P2;PMS_P1;PMS_P2;Temp;Humidity;BMP_temperature;BMP_pressure;BME280_temperature;BME280_humidity;BME280_pressure;Samples;Min_cycle;Max_cycle;Signal;HPM_P1;HPM_P2
2022/05/06 00:00:55;;;;;;;4.00;3.50;;;;;;;11.91;79.11;99267.59;4104368;28;20210;-53
2022/05/06 00:02:57;;;;;;;5.00;4.50;;;;;;;11.91;78.80;99270.34;4105634;28;20215;-53
2022/05/06 00:04:58;;;;;;;5.70;3.92;;;;;;;11.91;78.74;99270.34;4104513;28;20226;-53
2022/05/06 00:07:00;;;;;;;4.43;4.03;;;;;;;11.90;79.19;99265.94;4103686;28;20370;-53
2022/05/06 00:09:03;;;;;;;4.55;4.15;;;;;;;11.84;79.62;99271.56;4103576;28;20215;-54
2022/05/06 00:11:05;;;;;;;4.53;4.13;;;;;;;11.79;80.17;99268.69;4105504;28;20231;-53
2022/05/06 00:13:07;;;;;;;4.53;4.07;;;;;;;11.77;79.83;99266.19;4092982;29;20211;-53
2022/05/06 00:15:09;;;;;;;4.68;4.28;;;;;;;11.71;79.88;99261.66;4119230;28;20244;-54
2022/05/06 00:17:10;;;;;;;5.22;4.72;;;;;;;11.74;80.14;99274.91;4105817;28;20617;-53
2022/05/06 00:19:12;;;;;;;4.57;4.13;;;;;;;11.75;80.06;99265.59;4104527;28;20207;-53
2022/05/06 00:21:14;;;;;;;4.10;3.70;;;;;;;11.76;79.82;99270.00;4118565;28;20222;-53
2022/05/06 00:23:16;;;;;;;3.85;3.55;;;;;;;11.76;79.59;99264.53;4101233;28;20775;-53
2022/05/06 00:25:18;;;;;;;4.28;3.88;;;;;;;11.75;79.33;99260.13;4101030;28;20242;-54
2022/05/06 00:27:19;;;;;;;4.60;4.18;;;;;;;11.77;79.30;99266.19;4112073;28;20238;-54
2022/05/06 00:29:21;;;;;;;4.90;4.30;;;;;;;11.83;79.30;99265.22;4107096;28;20223;-54
2022/05/06 00:31:25;;;;;;;5.15;4.63;;;;;;;11.79;79.09;99268.69;4103533;28;20237;-55
2022/05/06 00:33:27;;;;;;;5.28;4.22;;;;;;;11.78;79.06;99265.09;4117332;28;20198;-55
2022/05/06 00:35:29;;;;;;;3.90;3.60;;;;;;;11.79;79.19;99269.53;4104267;28;20266;-54
2022/05/06 00:37:31;;;;;;;4.97;3.55;;;;;;;11.78;79.06;99267.84;4105055;28;20226;-55
2022/05/06 00:39:33;;;;;;;3.85;3.47;;;;;;;11.78;79.06;99267.84;4108620;28;20210;-53
2022/05/06 00:41:35;;;;;;;4.63;4.15;;;;;;;11.79;79.36;99266.81;4105760;28;20716;-54
2022/05/06 00:43:40;;;;;;;4.88;4.47;;;;;;;11.80;79.83;99260.25;4102781;28;20266;-54
2022/05/06 00:45:48;;;;;;;5.53;4.40;;;;;;;11.72;79.76;99263.31;4104200;28;20215;-54
2022/05/06 00:47:50;;;;;;;4.15;3.70;;;;;;;11.72;79.77;99263.31;4118669;28;20217;-54
2022/05/06 00:49:52;;;;;;;5.95;5.45;;;;;;;11.68;79.92;99273.13;4104386;28;20215;-53
2022/05/06 00:51:56;;;;;;;4.43;4.03;;;;;;;11.71;79.76;99261.66;4108299;28;20234;-54
2022/05/06 00:53:58;;;;;;;6.55;5.00;;;;;;;11.71;79.65;99269.06;4120014;28;20889;-54
2022/05/06 00:56:00;;;;;;;4.97;4.50;;;;;;;11.69;79.57;99274.78;4103650;28;20227;-54
2022/05/06 00:58:03;;;;;;;4.32;3.53;;;;;;;11.69;79.62;99269.28;4119856;28;20206;-55
2022/05/06 01:00:20;;;;;;;4.53;4.13;;;;;;;11.70;79.08;99276.44;4100606;28;20203;-54
2022/05/06 01:02:23;;;;;;;4.70;4.30;;;;;;;11.72;79.01;99265.25;4102530;28;20839;-53
2022/05/06 01:04:29;;;;;;;4.38;3.47;;;;;;;11.72;79.26;99257.84;4105771;28;20202;-55
2022/05/06 01:06:31;;;;;;;4.32;3.92;;;;;;;11.71;78.91;99267.13;4117587;28;20230;-55
2022/05/06 01:08:37;;;;;;;6.85;3.85;;;;;;;11.74;78.98;99265.84;4087323;28;20223;-56
2022/05/06 01:10:41;;;;;;;4.20;3.90;;;;;;;11.75;79.01;99257.38;4117823;28;20288;-53
2022/05/06 01:12:43;;;;;;;3.88;3.50;;;;;;;11.75;79.08;99268.34;4101277;28;20600;-54
2022/05/06 01:14:45;;;;;;;3.53;3.17;;;;;;;11.75;78.78;99256.53;4101622;28;20269;-54
2022/05/06 01:16:46;;;;;;;5.07;4.45;;;;;;;11.73;78.90;99254.03;4106694;28;20285;-54
2022/05/06 01:18:48;;;;;;;4.07;3.75;;;;;;;11.73;79.12;99254.03;4103316;28;20267;-54
2022/05/06 01:20:54;;;;;;;3.60;3.25;;;;;;;11.71;79.23;99261.66;4103962;28;21301;-54
2022/05/06 01:22:58;;;;;;;4.55;3.65;;;;;;;11.70;79.19;99264.66;4117962;28;20210;-55
2022/05/06 01:25:01;;;;;;;6.22;4.45;;;;;;;11.65;79.63;99262.59;4105153;28;20215;-53
2022/05/06 01:27:07;;;;;;;7.60;4.15;;;;;;;11.59;80.02;99263.59;4121688;28;20280;-53
2022/05/06 01:29:10;;;;;;;4.75;4.35;;;;;;;11.54;80.63;99266.16;4115221;28;20202;-53
2022/05/06 01:31:19;;;;;;;5.35;4.90;;;;;;;11.55;80.35;99265.09;4104945;28;20318;-53
2022/05/06 01:33:22;;;;;;;4.47;4.07;;;;;;;11.56;80.16;99269.50;4104370;28;21897;-53
2022/05/06 01:35:25;;;;;;;4.03;3.45;;;;;;;11.55;80.29;99262.34;4091275;28;20246;-54
2022/05/06 01:37:28;;;;;;;3.47;3.20;;;;;;;11.56;80.04;99257.72;4102460;28;20239;-53
2022/05/06 01:39:33;;;;;;;4.70;4.32;;;;;;;11.59;79.82;99269.06;4118941;28;20206;-54
2022/05/06 01:41:37;;;;;;;4.10;3.80;;;;;;;11.58;79.63;99277.53;4101044;28;20202;-55
2022/05/06 01:43:43;;;;;;;5.00;4.28;;;;;;;11.58;79.63;99266.56;4087363;28;20211;-54
2022/05/06 01:45:48;;;;;;;4.90;4.40;;;;;;;11.55;79.70;99267.84;4103504;28;20217;-54
2022/05/06 01:47:52;;;;;;;4.70;4.28;;;;;;;11.54;80.26;99266.16;4103673;28;20203;-54
2022/05/06 01:49:56;;;;;;;3.35;2.97;;;;;;;11.53;79.97;99258.19;4102703;28;20203;-53
2022/05/06 01:51:58;;;;;;;4.03;3.63;;;;;;;11.54;79.78;99266.16;4118037;28;20280;-53
2022/05/06 01:54:00;;;;;;;5.10;4.60;;;;;;;11.52;79.61;99265.56;4105246;28;20195;-53
2022/05/06 01:56:02;;;;;;;4.20;3.38;;;;;;;11.52;79.46;99265.56;4106363;28;20228;-55
2022/05/06 01:58:07;;;;;;;4.47;4.05;;;;;;;11.52;79.51;99262.00;4119168;28;20210;-54
2022/05/06 02:00:09;;;;;;;6.10;3.47;;;;;;;11.52;79.74;99256.50;4102636;28;20528;-54
2022/05/06 02:02:11;;;;;;;4.30;4.00;;;;;;;11.52;79.62;99259.25;4103230;28;20207;-54
2022/05/06 02:06:33;;;;;;;5.28;4.70;;;;;;;11.44;80.34;99254.94;4104582;28;20226;-54
2022/05/06 02:08:35;;;;;;;5.72;5.10;;;;;;;11.39;81.11;99251.25;4103825;28;20237;-52
2022/05/06 02:10:38;;;;;;;4.47;4.10;;;;;;;11.44;80.52;99249.47;4100950;28;20207;-53
2022/05/06 02:12:39;;;;;;;5.30;4.88;;;;;;;11.37;80.68;99246.00;4110495;28;20732;-54
2022/05/06 02:14:41;;;;;;;4.65;4.18;;;;;;;11.37;80.82;99247.94;4103797;28;20210;-53
2022/05/06 02:16:43;;;;;;;5.43;4.93;;;;;;;11.35;80.56;99245.44;4104402;28;20241;-53
2022/05/06 02:18:45;;;;;;;4.10;3.70;;;;;;;11.35;80.56;99244.56;4110171;28;20203;-55
2022/05/06 02:20:46;;;;;;;5.22;4.40;;;;;;;11.34;80.27;99249.25;4107777;28;20222;-53
2022/05/06 02:22:51;;;;;;;4.88;4.45;;;;;;;11.28;80.85;99252.06;4109227;28;20213;-54
2022/05/06 02:24:55;;;;;;;6.95;4.78;;;;;;;11.31;80.80;99254.34;4117845;28;20680;-54
2022/05/06 02:26:56;;;;;;;3.47;3.17;;;;;;;11.31;80.49;99244.22;4103675;28;20293;-55
2022/05/06 02:28:58;;;;;;;3.90;3.60;;;;;;;11.32;80.23;99251.34;4117160;28;20250;-54
2022/05/06 02:33:27;;;;;;;4.65;3.75;;;;;;;11.33;79.89;99247.56;4103717;28;20293;-54
2022/05/06 02:35:29;;;;;;;4.53;4.10;;;;;;;11.32;79.58;99256.84;4118036;28;20213;-52
2022/05/06 02:37:30;;;;;;;5.15;3.45;;;;;;;11.30;79.61;99256.25;4109896;28;20265;-54
2022/05/06 02:39:32;;;;;;;4.22;3.83;;;;;;;11.29;79.61;99257.31;4105466;28;20237;-54
2022/05/06 02:41:34;;;;;;;5.30;3.95;;;;;;;11.27;79.50;99264.09;4109733;28;20313;-54
2022/05/06 02:43:37;;;;;;;5.88;5.30;;;;;;;11.15;78.84;99255.03;4103258;28;20207;-53
2022/05/06 02:45:39;;;;;;;6.53;4.93;;;;;;;11.19;79.48;99257.09;4104896;28;20214;-53
2022/05/06 02:47:41;;;;;;;4.53;4.10;;;;;;;11.06;78.91;99262.78;4110288;28;20221;-54
2022/05/06 02:49:42;;;;;;;4.55;3.83;;;;;;;11.07;79.19;99264.44;4102011;28;20203;-53
2022/05/06 02:51:44;;;;;;;4.18;3.75;;;;;;;11.08;78.92;99260.63;4109576;28;20269;-54
2022/05/06 02:53:46;;;;;;;4.45;4.05;;;;;;;11.09;78.93;99265.03;4122411;28;20273;-54
2022/05/06 02:55:47;;;;;;;3.45;3.13;;;;;;;11.11;78.92;99259.34;4123037;28;20213;-54
2022/05/06 02:57:50;;;;;;;8.95;4.15;;;;;;;11.09;79.10;99256.81;4107243;28;20654;-53
2022/05/06 02:59:52;;;;;;;4.75;4.15;;;;;;;11.05;78.79;99265.75;4112263;28;20218;-54
2022/05/06 03:01:54;;;;;;;4.85;4.45;;;;;;;10.96;78.95;99257.03;4105903;28;20669;-55
2022/05/06 03:03:56;;;;;;;6.10;5.57;;;;;;;11.02;79.10;99256.09;4120322;28;20830;-53
2022/05/06 03:05:58;;;;;;;5.07;4.57;;;;;;;10.99;78.70;99250.25;4120723;28;20284;-53
2022/05/06 03:07:59;;;;;;;5.15;4.72;;;;;;;11.01;78.75;99265.38;4120496;28;20246;-53
2022/05/06 03:10:02;;;;;;;4.10;3.75;;;;;;;11.02;78.67;99264.31;4123634;28;20213;-54
2022/05/06 03:12:05;;;;;;;5.43;4.97;;;;;;;11.04;78.72;99253.94;4106900;28;20231;-55
2022/05/06 03:14:07;;;;;;;5.30;4.55;;;;;;;11.03;78.62;99262.41;4123735;28;20210;-53
2022/05/06 03:16:08;;;;;;;4.28;3.88;;;;;;;11.02;78.60;99261.56;4114541;28;20799;-53
2022/05/06 03:18:11;;;;;;;4.47;3.70;;;;;;;10.99;78.36;99262.06;4107044;28;20274;-56
2022/05/06 03:20:12;;;;;;;4.85;4.25;;;;;;;11.04;78.27;99258.59;4107464;28;20203;-54
2022/05/06 03:22:17;;;;;;;4.75;3.97;;;;;;;10.99;78.20;99251.09;4106943;28;20674;-54
2022/05/06 03:24:19;;;;;;;3.33;3.03;;;;;;;10.98;78.01;99254.88;4105041;28;20215;-55
2022/05/06 03:26:21;;;;;;;4.63;4.22;;;;;;;10.94;78.21;99264.66;4114266;28;20231;-55
2022/05/06 03:28:23;;;;;;;4.75;4.20;;;;;;;10.93;78.03;99249.28;4105218;28;20728;-54
2022/05/06 03:30:30;;;;;;;4.53;4.22;;;;;;;10.91;78.16;99256.88;4107450;28;20211;-54
2022/05/06 03:32:33;;;;;;;4.35;3.95;;;;;;;10.89;78.03;99255.44;4110944;28;20301;-54
2022/05/06 03:34:35;;;;;;;3.95;3.72;;;;;;;10.88;77.99;99258.44;4114316;28;20210;-55
2022/05/06 03:36:38;;;;;;;3.50;3.20;;;;;;;10.84;77.76;99258.91;4109521;28;20266;-56
2022/05/06 03:38:40;;;;;;;4.53;4.10;;;;;;;10.81;77.81;99253.03;4106536;28;20206;-56
2022/05/06 03:40:42;;;;;;;2.90;2.67;;;;;;;10.78;77.78;99259.81;4110812;28;20206;-55
2022/05/06 03:42:43;;;;;;;5.93;3.35;;;;;;;10.77;77.76;99258.16;4115905;28;20258;-55
2022/05/06 03:44:48;;;;;;;3.45;3.25;;;;;;;10.76;77.67;99261.13;4107095;28;20728;-56
2022/05/06 03:46:49;;;;;;;4.20;3.85;;;;;;;10.72;77.56;99259.09;4109127;28;20262;-55
2022/05/06 03:48:51;;;;;;;3.60;3.30;;;;;;;10.72;77.56;99270.88;4111315;28;20227;-56
2022/05/06 03:53:13;;;;;;;4.72;4.30;;;;;;;10.62;77.52;99258.81;4106073;28;20211;-55
2022/05/06 03:55:15;;;;;;;4.63;4.00;;;;;;;10.58;77.40;99263.09;4104940;28;20214;-56
2022/05/06 03:57:17;;;;;;;4.13;3.75;;;;;;;10.55;77.39;99255.34;4105145;28;20771;-55
2022/05/06 03:59:19;;;;;;;4.88;4.43;;;;;;;10.51;77.23;99257.72;4107591;28;20212;-55
2022/05/06 04:01:21;;;;;;;3.70;3.40;;;;;;;10.53;77.28;99261.03;4103110;28;20207;-55
2022/05/06 04:03:23;;;;;;;4.95;4.55;;;;;;;10.54;76.99;99261.91;4121065;28;20207;-55
2022/05/06 04:05:24;;;;;;;4.47;4.18;;;;;;;10.48;76.77;99265.56;4104677;28;20213;-55
2022/05/06 04:07:26;;;;;;;4.05;3.67;;;;;;;10.41;77.06;99262.06;4106044;28;20719;-55
2022/05/06 04:09:28;;;;;;;3.28;3.05;;;;;;;10.35;77.12;99271.19;4110617;28;20205;-54
2022/05/06 04:11:29;;;;;;;3.47;3.17;;;;;;;10.33;77.26;99268.69;4109101;28;20207;-54
2022/05/06 04:13:31;;;;;;;3.08;2.85;;;;;;;10.30;77.37;99271.03;4103704;28;20207;-56
2022/05/06 04:15:33;;;;;;;3.85;3.55;;;;;;;10.28;77.20;99267.72;4104020;28;20211;-57
2022/05/06 04:17:35;;;;;;;3.88;3.58;;;;;;;10.26;77.12;99275.28;4103854;28;20229;-56
2022/05/06 04:19:37;;;;;;;4.25;3.92;;;;;;;10.25;77.21;99284.56;4104153;28;20206;-56
2022/05/06 04:23:59;;;;;;;3.55;3.28;;;;;;;10.18;77.07;99283.81;4104887;28;20286;-55
2022/05/06 04:26:06;;;;;;;4.95;4.47;;;;;;;10.15;77.35;99289.75;4109926;28;20290;-54
2022/05/06 04:28:08;;;;;;;4.72;4.18;;;;;;;10.13;77.45;99281.78;4107949;28;20207;-56
2022/05/06 04:30:11;;;;;;;3.90;3.53;;;;;;;10.08;77.32;99286.25;4109820;28;20203;-56
2022/05/06 04:32:12;;;;;;;3.78;3.47;;;;;;;10.03;77.22;99286.91;4106111;28;20230;-55
2022/05/06 04:34:14;;;;;;;4.82;4.43;;;;;;;10.04;77.48;99293.25;4103212;28;20625;-55
2022/05/06 04:36:16;;;;;;;4.72;4.25;;;;;;;9.98;77.36;99284.03;4103513;28;20890;-57
2022/05/06 04:38:17;;;;;;;4.47;4.15;;;;;;;9.92;77.20;99287.66;4104174;28;20220;-55
2022/05/06 04:40:19;;;;;;;6.18;5.65;;;;;;;9.87;77.79;99292.97;4105883;28;20234;-55
2022/05/06 04:42:21;;;;;;;5.60;4.55;;;;;;;9.85;77.80;99296.97;4103216;28;20211;-55
2022/05/06 04:44:22;;;;;;;4.97;4.57;;;;;;;9.85;77.69;99307.91;4104792;28;20756;-55
2022/05/06 04:46:24;;;;;;;4.65;4.25;;;;;;;9.81;77.73;99298.53;4103801;28;20235;-56
2022/05/06 04:48:26;;;;;;;3.83;3.53;;;;;;;9.81;77.57;99304.81;4105353;28;20717;-55
2022/05/06 04:50:28;;;;;;;4.28;3.88;;;;;;;9.80;77.52;99303.13;4112207;28;20210;-55
2022/05/06 04:52:31;;;;;;;4.90;4.47;;;;;;;9.77;77.47;99303.59;4103804;28;20238;-55
2022/05/06 04:54:33;;;;;;;8.07;3.92;;;;;;;9.77;77.47;99308.22;4108420;28;20307;-55
2022/05/06 04:56:35;;;;;;;5.65;5.15;;;;;;;9.76;77.49;99310.09;4106884;28;20231;-56
2022/05/06 04:58:36;;;;;;;2.72;2.53;;;;;;;9.75;77.78;99311.16;4119629;28;20242;-56
2022/05/06 05:00:38;;;;;;;4.88;4.38;;;;;;;9.77;77.46;99313.69;4102277;28;20214;-56
2022/05/06 05:02:40;;;;;;;6.00;3.67;;;;;;;9.79;77.86;99308.81;4118671;28;20214;-57
2022/05/06 05:04:43;;;;;;;5.82;4.30;;;;;;;9.80;78.00;99321.41;4104333;28;20739;-54
2022/05/06 05:06:45;;;;;;;7.60;5.40;;;;;;;9.80;77.78;99321.41;4089899;28;20664;-55
2022/05/06 05:08:46;;;;;;;3.78;3.35;;;;;;;9.81;77.92;99320.38;4109345;28;20680;-55
2022/05/06 05:10:48;;;;;;;3.65;3.42;;;;;;;9.83;77.62;99320.97;4108603;28;20222;-55
2022/05/06 05:12:50;;;;;;;4.43;4.07;;;;;;;9.83;77.65;99330.00;4088508;28;20231;-54
2022/05/06 05:14:53;;;;;;;4.55;4.20;;;;;;;9.86;77.74;99325.97;4103666;28;21082;-54
2022/05/06 05:16:54;;;;;;;3.53;3.22;;;;;;;9.88;77.50;99315.69;4110246;28;20234;-55
2022/05/06 05:18:56;;;;;;;3.13;2.88;;;;;;;9.91;77.61;99321.53;4119365;28;20250;-55
2022/05/06 05:20:58;;;;;;;4.28;3.88;;;;;;;9.95;77.36;99319.19;4104170;28;20211;-54
2022/05/06 05:22:59;;;;;;;3.92;3.63;;;;;;;9.99;77.34;99328.59;4104333;28;20323;-55
2022/05/06 05:25:02;;;;;;;4.32;3.92;;;;;;;10.06;77.35;99324.75;4106305;28;20226;-56
2022/05/06 05:27:04;;;;;;;4.65;3.95;;;;;;;10.13;77.12;99324.69;4103962;28;20231;-56
2022/05/06 05:29:06;;;;;;;3.38;3.08;;;;;;;10.22;77.14;99328.81;4106014;28;20210;-55
2022/05/06 05:31:07;;;;;;;3.50;3.20;;;;;;;10.34;76.72;99332.44;4103800;28;20210;-55
2022/05/06 05:33:09;;;;;;;4.07;3.75;;;;;;;10.48;76.89;99328.50;4111041;28;20726;-56
2022/05/06 05:35:11;;;;;;;3.33;3.10;;;;;;;10.69;77.27;99330.72;4106774;28;20206;-55
2022/05/06 05:37:12;;;;;;;3.65;3.35;;;;;;;10.90;76.57;99334.63;4103039;28;20929;-55
2022/05/06 05:39:14;;;;;;;3.63;3.35;;;;;;;11.06;76.13;99334.00;4117380;28;20241;-54
2022/05/06 05:41:16;;;;;;;3.63;3.42;;;;;;;11.32;75.58;99343.72;4117849;28;20230;-55
2022/05/06 05:48:19;;;;;;;4.35;3.95;;;;;;;11.83;73.60;99341.19;4101763;28;20638;-56
2022/05/06 05:50:23;;;;;;;3.33;3.13;;;;;;;12.06;73.78;99339.28;4100734;28;20215;-54
2022/05/06 05:52:25;;;;;;;4.75;4.40;;;;;;;12.19;72.49;99336.31;4099298;28;20238;-54
2022/05/06 05:54:28;;;;;;;4.25;3.85;;;;;;;12.18;71.66;99342.84;4097819;28;20202;-54
2022/05/06 05:56:30;;;;;;;4.25;3.95;;;;;;;12.21;71.62;99342.38;4103120;28;20235;-56
2022/05/06 05:58:33;;;;;;;3.95;3.58;;;;;;;12.10;70.22;99340.47;4100224;28;20203;-55
2022/05/06 06:00:34;;;;;;;2.70;2.50;;;;;;;12.37;70.94;99344.38;4104986;28;20229;-53
2022/05/06 06:02:36;;;;;;;3.30;3.10;;;;;;;12.33;70.74;99348.69;4116942;28;20242;-54
2022/05/06 06:04:39;;;;;;;6.80;3.90;;;;;;;12.37;70.99;99355.34;4102723;28;20736;-53
2022/05/06 06:06:41;;;;;;;3.67;2.75;;;;;;;12.56;69.55;99350.56;4102643;28;20273;-55
2022/05/06 06:08:43;;;;;;;3.15;2.80;;;;;;;12.74;69.51;99356.72;4118128;28;20206;-54
2022/05/06 06:10:45;;;;;;;2.90;2.70;;;;;;;12.80;69.40;99355.75;4105467;28;20225;-54
2022/05/06 06:12:47;;;;;;;4.13;2.20;;;;;;;13.05;69.55;99352.69;4105712;28;20234;-54
2022/05/06 06:14:48;;;;;;;1.73;1.63;;;;;;;13.21;68.37;99347.22;4107011;28;20272;-54
2022/05/06 06:16:50;;;;;;;2.67;2.47;;;;;;;13.33;68.89;99342.50;4099396;28;20231;-52
2022/05/06 06:18:52;;;;;;;2.63;2.42;;;;;;;13.36;68.22;99343.94;4103060;28;20208;-53
2022/05/06 06:20:57;;;;;;;3.08;2.78;;;;;;;13.43;67.85;99344.63;4097111;28;20203;-54
2022/05/06 06:22:58;;;;;;;2.42;2.22;;;;;;;13.65;68.16;99351.88;4114547;28;20681;-53
2022/05/06 06:25:00;;;;;;;2.40;2.20;;;;;;;13.85;67.73;99349.47;4099395;28;20230;-54
2022/05/06 06:27:02;;;;;;;2.13;1.80;;;;;;;13.89;67.11;99347.06;4098101;28;20230;-52
2022/05/06 06:29:04;;;;;;;2.50;2.30;;;;;;;14.16;67.03;99345.28;4101555;28;20213;-54
2022/05/06 06:31:06;;;;;;;2.75;1.92;;;;;;;14.30;66.71;99349.34;4102074;28;20692;-54
2022/05/06 06:33:08;;;;;;;2.22;2.03;;;;;;;14.37;65.71;99348.06;4101671;28;20231;-52
2022/05/06 06:35:10;;;;;;;4.53;2.60;;;;;;;14.38;65.05;99344.22;4103360;28;20214;-53
2022/05/06 06:37:12;;;;;;;2.90;2.08;;;;;;;14.35;65.29;99344.75;4116432;28;20289;-52
2022/05/06 06:39:13;;;;;;;2.20;1.83;;;;;;;14.62;65.03;99345.66;4105528;28;20262;-53
2022/05/06 06:41:15;;;;;;;2.35;1.70;;;;;;;14.73;64.80;99352.97;4099613;28;20210;-54
2022/05/06 06:43:17;;;;;;;2.42;2.22;;;;;;;14.76;64.07;99346.94;4103614;28;20207;-53
2022/05/06 06:45:19;;;;;;;2.03;1.90;;;;;;;14.78;64.27;99353.06;4102305;28;20206;-53
2022/05/06 06:47:21;;;;;;;2.03;1.90;;;;;;;14.94;64.09;99349.38;4101166;28;20235;-53
2022/05/06 06:49:23;;;;;;;2.35;2.15;;;;;;;14.57;62.60;99348.34;4100800;28;20301;-52
2022/05/06 06:51:24;;;;;;;2.58;2.10;;;;;;;14.95;63.73;99353.78;4104979;28;20210;-55
2022/05/06 06:53:26;;;;;;;1.58;1.48;;;;;;;15.21;63.16;99344.72;4103462;28;20226;-52
2022/05/06 06:55:28;;;;;;;2.50;1.90;;;;;;;15.45;62.93;99351.63;4103692;28;20238;-53
2022/05/06 06:57:30;;;;;;;3.97;2.17;;;;;;;15.71;62.24;99349.94;4109432;28;20294;-53
2022/05/06 06:59:32;;;;;;;2.30;2.08;;;;;;;15.59;61.61;99355.63;4104034;28;20215;-53
2022/05/06 07:01:33;;;;;;;1.70;1.60;;;;;;;15.64;59.66;99347.38;4102604;28;20234;-53
2022/05/06 07:03:35;;;;;;;2.22;1.63;;;;;;;15.44;61.40;99349.13;4106018;28;20221;-53
2022/05/06 07:11:52;;;;;;;2.22;1.98;;;;;;;15.58;60.31;99342.94;4104704;28;20222;-53
2022/05/06 07:13:08;;;;;;;2.25;2.08;;;;;;;15.04;59.00;99354.19;4098003;28;20230;-53
2022/05/06 07:15:10;;;;;;;4.18;1.35;;;;;;;15.23;59.63;99348.03;4100154;28;20234;-53
2022/05/06 07:17:13;;;;;;;2.38;1.67;;;;;;;15.50;59.56;99348.91;4098556;28;20713;-52
2022/05/06 07:19:21;;;;;;;3.53;1.52;;;;;;;15.57;57.72;99355.03;4100665;28;20597;-53
2022/05/06 07:21:23;;;;;;;1.50;1.40;;;;;;;15.70;58.05;99357.38;4101387;28;20318;-53
2022/05/06 07:23:25;;;;;;;7.07;1.65;;;;;;;15.91;59.28;99361.97;4102077;28;20454;-54
2022/05/06 07:25:27;;;;;;;2.83;2.00;;;;;;;16.04;58.26;99357.94;4096879;28;20239;-53
2022/05/06 07:27:29;;;;;;;1.90;1.42;;;;;;;16.37;59.24;99354.88;4098974;28;20231;-53
2022/05/06 07:29:31;;;;;;;1.45;1.25;;;;;;;16.53;57.53;99351.97;4097910;28;20221;-53
2022/05/06 07:31:32;;;;;;;1.30;1.20;;;;;;;16.67;56.15;99355.06;4106478;28;20214;-53
2022/05/06 07:33:34;;;;;;;1.27;1.08;;;;;;;16.95;57.46;99347.16;4100002;28;20273;-53
2022/05/06 07:35:38;;;;;;;1.48;1.10;;;;;;;17.20;55.91;99344.50;4102736;28;20207;-53
2022/05/06 07:37:41;;;;;;;6.90;1.25;;;;;;;17.48;56.20;99347.63;4104463;28;20210;-53
2022/05/06 07:39:43;;;;;;;1.13;1.00;;;;;;;17.50;54.73;99356.50;4096097;28;20211;-53
2022/05/06 07:41:46;;;;;;;1.08;0.98;;;;;;;17.72;55.39;99350.72;4098984;28;20711;-53
2022/05/06 07:43:48;;;;;;;0.88;0.85;;;;;;;17.53;53.51;99355.13;4099219;28;20243;-52
2022/05/06 07:45:50;;;;;;;0.68;0.50;;;;;;;17.72;54.36;99351.53;4118271;28;20210;-52
2022/05/06 07:47:52;;;;;;;1.20;1.02;;;;;;;17.97;53.75;99356.25;4104847;28;20231;-53
2022/05/06 07:50:02;;;;;;;2.20;0.90;;;;;;;18.19;54.08;99349.31;4102713;28;20210;-53
2022/05/06 07:52:04;;;;;;;0.93;0.80;;;;;;;18.21;53.56;99351.81;4111928;28;20669;-53
2022/05/06 07:54:05;;;;;;;1.00;0.88;;;;;;;17.42;51.82;99356.19;4110430;28;20708;-53
2022/05/06 07:56:08;;;;;;;4.40;1.27;;;;;;;17.49;52.40;99351.22;4091028;28;20756;-53
2022/05/06 07:58:10;;;;;;;1.60;1.15;;;;;;;17.38;51.46;99357.88;4113660;28;20210;-53
2022/05/06 08:00:12;;;;;;;1.70;1.40;;;;;;;17.48;52.15;99357.88;4103748;28;20227;-53
2022/05/06 08:04:36;;;;;;;1.02;0.93;;;;;;;18.24;54.11;99351.25;4096890;28;20214;-53
2022/05/06 08:06:38;;;;;;;1.60;1.10;;;;;;;18.68;53.60;99353.13;4108224;28;20235;-53
2022/05/06 08:08:39;;;;;;;0.70;0.70;;;;;;;18.67;52.21;99356.19;4103034;28;20215;-53
2022/05/06 08:10:41;;;;;;;0.80;0.80;;;;;;;18.83;51.94;99349.44;4103382;28;20207;-53
2022/05/06 08:12:43;;;;;;;1.17;1.00;;;;;;;18.95;50.69;99352.75;4122201;28;20218;-52
2022/05/06 08:14:45;;;;;;;1.30;1.17;;;;;;;18.69;52.27;99349.25;4106626;28;20203;-53
2022/05/06 08:16:48;;;;;;;6.82;1.25;;;;;;;18.67;52.97;99347.84;4110681;28;20242;-52
2022/05/06 08:18:49;;;;;;;2.13;1.58;;;;;;;18.83;52.84;99352.22;4106136;28;20211;-54
2022/05/06 08:20:52;;;;;;;1.05;0.68;;;;;;;19.13;52.56;99352.94;4105222;28;20214;-54
2022/05/06 08:22:54;;;;;;;1.27;1.17;;;;;;;19.57;52.22;99358.56;4110626;28;20210;-52
2022/05/06 08:24:56;;;;;;;1.23;1.13;;;;;;;19.66;52.49;99354.88;4119889;28;20254;-52
2022/05/06 08:27:18;;;;;;;2.05;1.15;;;;;;;19.33;49.40;99360.38;4105922;28;20230;-52
2022/05/06 08:29:22;;;;;;;3.92;1.23;;;;;;;19.13;50.35;99354.88;4097611;28;20222;-51
2022/05/06 08:31:23;;;;;;;3.60;1.50;;;;;;;18.74;50.19;99356.72;4121117;28;20206;-53
2022/05/06 08:33:26;;;;;;;1.75;1.20;;;;;;;19.20;52.30;99361.00;4119860;28;20230;-54
2022/05/06 08:35:28;;;;;;;0.93;0.90;;;;;;;19.27;49.59;99361.50;4104181;28;20336;-52
2022/05/06 08:37:46;;;;;;;1.10;1.00;;;;;;;19.50;50.96;99347.75;4092204;28;20310;-53
2022/05/06 08:39:48;;;;;;;2.00;1.45;;;;;;;19.20;50.19;99344.34;4105940;28;20199;-52
2022/05/06 08:41:50;;;;;;;1.27;1.00;;;;;;;19.20;48.22;99355.44;4101049;28;22139;-53
2022/05/06 08:43:51;;;;;;;2.17;1.98;;;;;;;18.87;49.59;99347.78;4116243;28;20211;-54
2022/05/06 08:50:53;;;;;;;1.95;1.73;;;;;;;19.48;49.46;99346.38;4100588;28;20206;-53
2022/05/06 08:52:55;;;;;;;1.88;1.00;;;;;;;19.03;48.43;99354.91;4103166;28;20211;-53
2022/05/06 08:54:56;;;;;;;1.77;1.63;;;;;;;18.53;48.83;99352.34;4103108;28;20592;-52
2022/05/06 08:56:59;;;;;;;0.70;0.70;;;;;;;17.96;48.75;99360.97;4108414;28;20226;-52
2022/05/06 08:59:00;;;;;;;2.28;1.00;;;;;;;18.31;49.80;99351.84;4102078;28;20210;-54
2022/05/06 09:01:08;;;;;;;1.20;1.10;;;;;;;18.76;49.21;99344.22;4098995;28;20757;-54
2022/05/06 09:03:17;;;;;;;7.25;1.17;;;;;;;18.44;48.31;99352.06;4105996;28;20639;-54
2022/05/06 09:05:20;;;;;;;1.40;1.00;;;;;;;18.45;48.02;99353.72;4104535;28;20519;-52
2022/05/06 09:07:24;;;;;;;3.50;1.00;;;;;;;18.37;49.20;99345.16;4114321;28;20269;-51
2022/05/06 09:09:25;;;;;;;0.90;0.90;;;;;;;18.11;50.57;99340.75;4116937;28;20335;-51
2022/05/06 09:13:58;;;;;;;1.00;1.00;;;;;;;19.22;49.75;99355.97;4102482;28;20231;-54
2022/05/06 09:18:41;;;;;;;1.58;0.77;;;;;;;18.79;49.03;99354.75;4098835;28;20677;-52
2022/05/06 09:20:43;;;;;;;1.00;0.90;;;;;;;18.43;49.09;99360.66;4104368;28;20218;-52
2022/05/06 09:22:45;;;;;;;1.45;1.13;;;;;;;18.51;50.58;99358.16;4089438;28;20756;-52
2022/05/06 09:24:48;;;;;;;1.02;0.70;;;;;;;18.52;49.24;99365.34;4104744;28;20219;-53
2022/05/06 09:27:10;;;;;;;0.80;0.80;;;;;;;19.36;48.61;99365.34;4114157;28;20230;-52
2022/05/06 09:29:26;;;;;;;4.68;0.73;;;;;;;19.72;48.33;99359.28;4118654;28;20206;-53
2022/05/06 09:31:28;;;;;;;0.60;0.60;;;;;;;20.51;47.92;99361.69;4101391;28;20258;-52
2022/05/06 09:33:32;;;;;;;1.13;0.73;;;;;;;20.90;47.07;99366.00;4104547;28;20234;-53
2022/05/06 09:35:34;;;;;;;0.50;0.50;;;;;;;21.13;47.27;99364.34;4101116;28;20750;-53
2022/05/06 09:37:46;;;;;;;2.03;0.68;;;;;;;21.58;45.95;99364.53;4091986;29;20231;-53
2022/05/06 09:40:00;;;;;;;0.73;0.73;;;;;;;21.59;43.47;99362.59;4103502;28;20217;-52
2022/05/06 09:42:04;;;;;;;0.52;0.52;;;;;;;21.27;42.41;99354.13;4120620;28;20658;-52
2022/05/06 09:44:08;;;;;;;0.88;0.57;;;;;;;21.54;42.16;99359.88;4103666;28;20230;-53
2022/05/06 09:46:20;;;;;;;0.60;0.60;;;;;;;20.68;40.12;99357.31;4098287;28;20230;-51
2022/05/06 09:48:22;;;;;;;0.82;0.82;;;;;;;20.33;39.45;99351.28;4102223;28;20305;-53
2022/05/06 09:50:38;;;;;;;2.28;0.98;;;;;;;19.90;40.86;99355.00;4096727;28;20286;-53
2022/05/06 09:52:40;;;;;;;0.77;0.70;;;;;;;20.41;42.13;99356.22;4101111;28;20225;-52
2022/05/06 09:54:44;;;;;;;0.80;0.80;;;;;;;20.37;41.23;99355.97;4102124;28;20218;-52
2022/05/06 09:56:45;;;;;;;0.82;0.70;;;;;;;20.20;41.11;99355.59;4087264;28;20337;-52
2022/05/06 09:58:52;;;;;;;0.77;0.60;;;;;;;20.51;40.78;99356.13;4104811;28;20223;-51
2022/05/06 10:00:53;;;;;;;0.70;0.70;;;;;;;20.07;40.55;99361.00;4102555;28;20206;-52
2022/05/06 10:02:56;;;;;;;0.65;0.57;;;;;;;20.50;41.46;99354.47;4103865;28;20211;-53
2022/05/06 10:04:58;;;;;;;0.77;0.50;;;;;;;21.03;39.63;99367.22;4091176;28;21079;-54
2022/05/06 10:07:03;;;;;;;1.17;0.70;;;;;;;20.10;39.72;99360.41;4104156;28;21202;-52
2022/05/06 10:09:04;;;;;;;0.95;0.60;;;;;;;20.37;39.75;99355.97;4115278;28;20206;-52
2022/05/06 10:11:14;;;;;;;0.60;0.40;;;;;;;20.96;41.71;99350.06;4103482;28;20210;-52